createdAt,value
2022-07-30T00:02:09.940Z,23.44
2022-07-30T00:04:37.645Z,22.85
2022-07-30T00:07:05.465Z,23.49
2022-07-30T00:09:34.299Z,23.27
2022-07-30T00:12:02.261Z,23.26
2022-07-30T00:14:30.692Z,23.38
2022-07-30T00:16:58.599Z,23.13
2022-07-30T00:19:28.100Z,23.34
2022-07-30T00:21:55.892Z,23.33
2022-07-30T00:24:24.158Z,23.18
2022-07-30T00:26:52.296Z,23.19
2022-07-30T00:29:20.121Z,23.21
2022-07-30T00:31:47.905Z,23.28
2022-07-30T00:34:15.657Z,22.65
2022-07-30T00:36:44.729Z,23.15
2022-07-30T00:39:12.583Z,22.86
2022-07-30T00:41:54.233Z,23.22
2022-07-30T00:44:21.972Z,22.61
2022-07-30T00:46:49.745Z,22.84
2022-07-30T00:49:17.646Z,22.95
2022-07-30T00:51:46.826Z,23.28
2022-07-30T00:54:15.397Z,23.13
2022-07-30T00:56:43.463Z,23.00
2022-07-30T00:59:11.349Z,23.13
2022-07-30T01:01:39.099Z,23.27
2022-07-30T01:04:11.346Z,23.36
2022-07-30T01:06:39.584Z,23.26
2022-07-30T01:09:08.782Z,23.27
2022-07-30T01:11:38.986Z,22.96
2022-07-30T01:14:07.539Z,22.78
2022-07-30T01:16:35.669Z,22.83
2022-07-30T01:19:24.822Z,22.50
2022-07-30T01:21:58.653Z,22.50
2022-07-30T01:24:32.070Z,22.72
2022-07-30T01:27:03.197Z,23.09
2022-07-30T01:29:33.307Z,22.77
2022-07-30T01:32:03.624Z,22.85
2022-07-30T01:34:33.553Z,22.59
2022-07-30T01:37:03.448Z,23.05
2022-07-30T01:39:31.585Z,22.77
2022-07-30T01:42:05.198Z,23.10
2022-07-30T01:44:33.561Z,23.22
2022-07-30T01:47:03.521Z,23.05
2022-07-30T01:49:31.980Z,23.05
2022-07-30T01:52:01.032Z,23.47
2022-07-30T01:54:30.163Z,23.41
2022-07-30T01:57:01.467Z,23.49
2022-07-30T01:59:31.511Z,23.57
2022-07-30T02:01:59.636Z,23.52
2022-07-30T02:04:28.145Z,23.40
2022-07-30T02:07:01.327Z,23.38
2022-07-30T02:09:32.392Z,23.13
2022-07-30T02:12:20.802Z,23.34
2022-07-30T02:14:50.953Z,23.12
2022-07-30T02:17:26.594Z,23.39
2022-07-30T02:19:58.825Z,23.29
2022-07-30T02:22:29.914Z,22.78
2022-07-30T02:24:59.656Z,22.81
2022-07-30T02:27:32.003Z,23.22
2022-07-30T02:30:02.952Z,23.31
2022-07-30T02:32:37.229Z,22.89
2022-07-30T02:35:10.530Z,23.22
2022-07-30T02:37:43.987Z,23.14
2022-07-30T02:40:17.903Z,23.38
2022-07-30T02:42:48.236Z,23.19
2022-07-30T02:45:17.663Z,22.83
2022-07-30T02:47:46.684Z,23.06
2022-07-30T02:50:15.205Z,23.15
2022-07-30T02:52:43.595Z,23.02
2022-07-30T02:55:12.295Z,22.97
2022-07-30T02:57:43.787Z,23.04
2022-07-30T03:00:14.076Z,22.80
2022-07-30T03:02:45.287Z,23.08
2022-07-30T03:05:14.987Z,23.04
2022-07-30T03:07:43.349Z,22.70
2022-07-30T03:10:12.916Z,22.65
2022-07-30T03:12:41.785Z,23.05
2022-07-30T03:15:10.768Z,22.99
2022-07-30T03:17:43.689Z,22.77
2022-07-30T03:20:14.611Z,22.97
2022-07-30T03:22:45.258Z,23.08
2022-07-30T03:25:15.290Z,23.17
2022-07-30T03:27:43.966Z,22.59
2022-07-30T03:30:12.213Z,22.36
2022-07-30T03:32:42.874Z,22.28
2022-07-30T03:35:16.978Z,22.52
2022-07-30T03:37:46.014Z,22.39
2022-07-30T03:40:15.229Z,22.16
2022-07-30T03:42:43.453Z,22.11
2022-07-30T03:45:13.586Z,22.38
2022-07-30T03:47:44.347Z,22.28
2022-07-30T03:50:13.277Z,21.96
2022-07-30T03:52:42.153Z,22.34
2022-07-30T03:55:11.738Z,21.92
2022-07-30T03:57:39.639Z,21.99
2022-07-30T04:00:09.230Z,21.83
2022-07-30T04:02:43.403Z,21.72
2022-07-30T04:05:12.457Z,21.50
2022-07-30T04:07:44.719Z,21.47
2022-07-30T04:10:13.828Z,21.36
2022-07-30T04:12:41.595Z,21.97
2022-07-30T04:16:38.078Z,21.54
2022-07-30T04:18:05.596Z,21.64
2022-07-30T04:20:35.963Z,21.72
2022-07-30T04:23:04.119Z,21.65
2022-07-30T04:25:32.689Z,21.68
2022-07-30T04:28:03.744Z,21.79
2022-07-30T04:30:33.216Z,21.99
2022-07-30T04:33:03.164Z,21.55
2022-07-30T04:35:50.612Z,21.92
2022-07-30T04:38:20.364Z,21.75
2022-07-30T04:40:49.304Z,21.79
2022-07-30T04:43:17.485Z,21.95
2022-07-30T04:45:45.245Z,22.26
2022-07-30T04:48:14.316Z,22.17
2022-07-30T04:50:43.859Z,22.27
2022-07-30T04:53:12.425Z,22.56
2022-07-30T04:55:43.103Z,22.55
2022-07-30T04:58:11.918Z,22.09
2022-07-30T05:00:41.443Z,22.42
2022-07-30T05:03:09.684Z,22.63
2022-07-30T05:05:38.782Z,22.55
2022-07-30T05:08:06.630Z,22.62
2022-07-30T05:10:34.456Z,22.78
2022-07-30T05:13:03.034Z,22.65
2022-07-30T05:15:36.275Z,22.68
2022-07-30T05:18:05.341Z,22.77
2022-07-30T05:20:33.023Z,22.66
2022-07-30T05:23:03.996Z,22.79
2022-07-30T05:25:31.729Z,22.89
2022-07-30T05:27:59.429Z,22.78
2022-07-30T05:30:27.460Z,22.72
2022-07-30T05:32:56.033Z,22.89
2022-07-30T05:35:24.047Z,22.87
2022-07-30T05:37:51.808Z,23.01
2022-07-30T05:40:20.897Z,22.96
2022-07-30T05:42:48.601Z,22.93
2022-07-30T05:45:16.313Z,23.01
2022-07-30T05:47:44.127Z,23.04
2022-07-30T05:50:12.612Z,22.94
2022-07-30T05:52:40.402Z,23.04
2022-07-30T05:55:09.934Z,23.09
2022-07-30T05:57:42.023Z,22.70
2022-07-30T06:00:11.458Z,23.09
2022-07-30T06:02:40.621Z,23.13
2022-07-30T06:05:09.326Z,23.12
2022-07-30T06:07:38.400Z,22.85
2022-07-30T06:10:07.004Z,23.11
2022-07-30T06:12:34.901Z,23.18
2022-07-30T06:15:04.133Z,23.07
2022-07-30T06:17:32.261Z,23.24
2022-07-30T06:20:11.181Z,23.21
2022-07-30T06:22:39.412Z,23.16
2022-07-30T06:25:09.071Z,23.37
2022-07-30T06:27:39.761Z,23.12
2022-07-30T06:30:12.061Z,23.19
2022-07-30T06:32:40.037Z,23.29
2022-07-30T06:35:09.156Z,23.26
2022-07-30T06:37:58.652Z,23.25
2022-07-30T06:40:25.387Z,23.21
2022-07-30T06:42:53.118Z,23.18
2022-07-30T06:45:22.930Z,23.38
2022-07-30T06:47:51.373Z,23.42
2022-07-30T06:50:20.438Z,23.23
2022-07-30T06:52:48.277Z,23.41
2022-07-30T06:55:16.015Z,23.20
2022-07-30T06:57:43.744Z,23.10
2022-07-30T07:00:13.255Z,22.98
2022-07-30T07:02:43.301Z,23.34
2022-07-30T07:05:11.657Z,23.11
2022-07-30T07:07:43.123Z,22.97
2022-07-30T07:10:14.211Z,23.00
2022-07-30T07:12:41.950Z,22.92
2022-07-30T07:15:10.645Z,23.13
2022-07-30T07:17:40.321Z,23.02
2022-07-30T07:20:10.618Z,23.03
2022-07-30T07:22:38.390Z,23.09
2022-07-30T07:25:07.123Z,23.03
2022-07-30T07:27:34.849Z,22.89
2022-07-30T07:30:05.396Z,22.99
2022-07-30T07:32:34.205Z,22.64
2022-07-30T07:35:01.934Z,23.13
2022-07-30T07:37:31.098Z,22.70
2022-07-30T07:39:59.722Z,23.18
2022-07-30T07:42:27.485Z,22.78
2022-07-30T07:44:55.205Z,22.71
2022-07-30T07:47:22.911Z,22.82
2022-07-30T07:49:50.599Z,22.89
2022-07-30T07:52:18.328Z,22.97
2022-07-30T07:54:47.465Z,22.88
2022-07-30T07:57:15.493Z,22.77
2022-07-30T07:59:43.358Z,22.57
2022-07-30T08:02:11.187Z,22.48
2022-07-30T08:04:39.144Z,22.90
2022-07-30T08:07:07.547Z,22.98
2022-07-30T08:09:43.520Z,22.86
2022-07-30T08:12:14.121Z,22.90
2022-07-30T08:14:41.938Z,22.74
2022-07-30T08:17:09.967Z,23.01
2022-07-30T08:19:37.706Z,23.08
2022-07-30T08:22:05.442Z,23.30
2022-07-30T08:24:33.610Z,23.41
2022-07-30T08:27:03.539Z,23.27
2022-07-30T08:29:32.999Z,23.33
2022-07-30T08:32:00.989Z,23.41
2022-07-30T08:34:29.267Z,22.96
2022-07-30T08:36:57.081Z,23.08
2022-07-30T08:39:24.831Z,23.03
2022-07-30T08:41:52.743Z,23.22
2022-07-30T08:44:21.751Z,23.20
2022-07-30T08:46:53.326Z,23.40
2022-07-30T08:49:21.064Z,23.44
2022-07-30T08:51:49.306Z,23.83
2022-07-30T08:54:17.604Z,23.63
2022-07-30T08:56:45.768Z,23.84
2022-07-30T08:59:13.761Z,23.81
2022-07-30T09:01:41.484Z,23.87
2022-07-30T09:04:11.105Z,24.08
2022-07-30T09:06:40.761Z,24.21
2022-07-30T09:09:08.544Z,24.35
2022-07-30T09:11:36.683Z,24.19
2022-07-30T09:14:09.324Z,24.36
2022-07-30T09:16:37.206Z,24.61
2022-07-30T09:19:14.827Z,24.66
2022-07-30T09:21:42.615Z,24.66
2022-07-30T09:24:13.024Z,24.82
2022-07-30T09:26:55.436Z,24.99
2022-07-30T09:29:24.620Z,24.97
2022-07-30T09:31:56.801Z,24.99
2022-07-30T09:34:27.220Z,25.45
2022-07-30T09:36:55.953Z,25.05
2022-07-30T09:39:33.678Z,25.38
2022-07-30T09:42:04.318Z,25.47
2022-07-30T09:44:32.551Z,25.20
2022-07-30T09:47:03.440Z,25.52
2022-07-30T09:49:32.894Z,25.39
2022-07-30T09:52:00.831Z,25.81
2022-07-30T09:57:35.193Z,25.68
2022-07-30T10:00:18.725Z,25.65
2022-07-30T10:02:47.727Z,25.76
2022-07-30T10:05:19.267Z,25.73
2022-07-30T10:07:51.237Z,25.69
2022-07-30T10:10:20.863Z,25.70
2022-07-30T10:12:49.855Z,25.63
2022-07-30T10:15:20.507Z,26.25
2022-07-30T10:17:48.789Z,25.77
2022-07-30T10:20:18.369Z,25.79
2022-07-30T10:22:48.009Z,25.78
2022-07-30T10:25:19.416Z,25.95
2022-07-30T10:27:49.177Z,25.85
2022-07-30T10:30:17.359Z,26.06
2022-07-30T10:32:47.634Z,26.37
2022-07-30T10:35:34.819Z,25.75
2022-07-30T10:38:08.554Z,26.04
2022-07-30T10:40:39.835Z,25.79
2022-07-30T10:43:37.360Z,25.72
2022-07-30T10:46:19.814Z,25.71
2022-07-30T10:48:51.105Z,26.06
2022-07-30T10:51:34.585Z,25.92
2022-07-30T10:54:02.570Z,26.15
2022-07-30T10:56:30.338Z,26.16
2022-07-30T10:58:59.492Z,26.19
2022-07-30T11:02:09.431Z,26.63
2022-07-30T11:04:37.834Z,26.75
2022-07-30T11:07:31.218Z,26.30
2022-07-30T11:10:09.095Z,26.28
2022-07-30T11:12:54.505Z,26.64
2022-07-30T11:15:22.600Z,26.44
2022-07-30T11:18:04.373Z,27.03
2022-07-30T11:20:32.983Z,26.77
2022-07-30T11:23:14.198Z,26.34
2022-07-30T11:25:51.934Z,26.92
2022-07-30T11:28:37.600Z,26.62
2022-07-30T11:31:55.783Z,27.11
2022-07-30T11:34:29.820Z,26.98
2022-07-30T11:37:18.891Z,27.37
2022-07-30T11:40:13.927Z,27.36
2022-07-30T11:42:43.446Z,27.06
2022-07-30T11:45:23.193Z,27.35
2022-07-30T11:47:52.923Z,26.57
2022-07-30T11:50:21.208Z,27.52
2022-07-30T11:52:51.800Z,27.53
2022-07-30T11:55:30.164Z,27.28
2022-07-30T11:57:58.825Z,27.35
2022-07-30T12:00:27.255Z,27.48
2022-07-30T12:02:54.975Z,27.89
2022-07-30T12:05:26.695Z,27.65
2022-07-30T12:07:59.345Z,27.63
2022-07-30T12:10:28.447Z,27.80
2022-07-30T12:13:08.121Z,28.01
2022-07-30T12:15:37.389Z,27.81
2022-07-30T12:18:25.275Z,27.82
2022-07-30T12:20:57.790Z,27.98
2022-07-30T12:23:27.996Z,28.32
2022-07-30T12:25:57.431Z,27.98
2022-07-30T12:28:27.384Z,28.18
2022-07-30T12:30:56.062Z,28.17
2022-07-30T12:33:24.476Z,27.92
2022-07-30T12:35:53.796Z,28.14
2022-07-30T12:38:23.032Z,27.74
2022-07-30T12:40:55.372Z,27.65
2022-07-30T12:43:46.779Z,27.55
2022-07-30T12:46:16.228Z,27.66
2022-07-30T12:48:58.106Z,28.19
2022-07-30T12:51:32.493Z,28.04
2022-07-30T12:54:19.350Z,28.30
2022-07-30T12:56:59.134Z,28.15
2022-07-30T12:59:28.884Z,28.32
2022-07-30T13:02:00.105Z,28.19
2022-07-30T13:04:31.465Z,28.27
2022-07-30T13:07:07.038Z,28.43
2022-07-30T13:09:35.168Z,28.47
2022-07-30T13:12:03.020Z,28.30
2022-07-30T13:14:32.262Z,28.27
2022-07-30T13:17:00.460Z,28.34
2022-07-30T13:19:28.936Z,28.36
2022-07-30T13:21:56.652Z,28.54
2022-07-30T13:24:24.453Z,28.41
2022-07-30T13:26:52.307Z,28.34
2022-07-30T13:29:20.042Z,28.47
2022-07-30T13:31:49.170Z,28.35
2022-07-30T13:34:16.873Z,28.36
2022-07-30T13:36:44.717Z,28.40
2022-07-30T13:39:12.907Z,27.75
2022-07-30T13:41:41.699Z,28.13
2022-07-30T13:44:09.462Z,28.22
2022-07-30T13:46:39.748Z,28.36
2022-07-30T13:49:10.780Z,28.57
2022-07-30T13:51:38.879Z,28.42
2022-07-30T13:54:07.254Z,28.61
2022-07-30T13:56:35.038Z,28.54
2022-07-30T13:59:08.841Z,28.25
2022-07-30T14:01:37.755Z,28.15
2022-07-30T14:04:06.548Z,28.34
2022-07-30T14:06:35.589Z,28.29
2022-07-30T14:09:07.782Z,28.47
2022-07-30T14:11:35.846Z,28.51
2022-07-30T14:14:05.055Z,28.30
2022-07-30T14:16:45.123Z,28.51
2022-07-30T14:19:24.083Z,28.67
2022-07-30T14:21:54.374Z,28.73
2022-07-30T14:24:22.382Z,28.22
2022-07-30T14:26:55.866Z,27.92
2022-07-30T14:29:25.994Z,28.21
2022-07-30T14:31:53.740Z,28.11
2022-07-30T14:34:21.585Z,28.01
2022-07-30T14:36:49.290Z,28.20
2022-07-30T14:39:18.381Z,28.34
2022-07-30T14:41:46.127Z,27.95
2022-07-30T14:44:13.880Z,28.23
2022-07-30T14:46:52.245Z,28.53
2022-07-30T14:49:20.905Z,28.64
2022-07-30T14:51:48.821Z,28.60
2022-07-30T14:54:17.932Z,28.48
2022-07-30T14:56:45.750Z,28.46
2022-07-30T14:59:13.640Z,28.60
2022-07-30T15:01:42.157Z,28.36
2022-07-30T15:04:11.411Z,28.38
2022-07-30T15:06:40.686Z,28.55
2022-07-30T15:09:08.829Z,28.32
2022-07-30T15:11:56.663Z,28.31
2022-07-30T15:14:26.873Z,28.44
2022-07-30T15:16:59.392Z,28.67
2022-07-30T15:19:33.975Z,28.49
2022-07-30T15:22:03.039Z,28.35
2022-07-30T15:24:31.514Z,28.48
2022-07-30T15:27:01.281Z,28.35
2022-07-30T15:29:30.093Z,28.47
2022-07-30T15:31:59.911Z,28.35
2022-07-30T15:34:33.894Z,28.25
2022-07-30T15:37:03.556Z,28.23
2022-07-30T15:39:33.521Z,28.12
2022-07-30T15:42:04.263Z,28.13
2022-07-30T15:44:32.227Z,27.83
2022-07-30T15:46:59.996Z,27.67
2022-07-30T15:49:28.781Z,27.81
2022-07-30T15:51:57.381Z,27.70
2022-07-30T15:54:25.153Z,27.83
2022-07-30T15:56:54.647Z,27.64
2022-07-30T15:59:32.695Z,27.69
2022-07-30T16:02:00.691Z,27.58
2022-07-30T16:04:32.339Z,27.89
2022-07-30T16:07:00.845Z,27.78
2022-07-30T16:09:29.945Z,27.76
2022-07-30T16:11:58.157Z,27.73
2022-07-30T16:14:26.450Z,27.61
2022-07-30T16:16:55.597Z,27.67
2022-07-30T16:19:23.380Z,27.78
2022-07-30T16:21:51.126Z,27.66
2022-07-30T16:24:18.935Z,27.93
2022-07-30T16:26:46.784Z,27.80
2022-07-30T16:29:14.683Z,27.84
2022-07-30T16:31:43.648Z,26.99
2022-07-30T16:34:12.709Z,27.11
2022-07-30T16:36:40.545Z,25.75
2022-07-30T16:39:08.415Z,25.70
2022-07-30T16:41:36.318Z,25.86
2022-07-30T16:44:05.429Z,26.04
2022-07-30T16:46:33.132Z,26.35
2022-07-30T16:49:00.905Z,26.66
2022-07-30T16:51:31.225Z,26.32
2022-07-30T16:53:59.047Z,26.63
2022-07-30T16:56:26.887Z,26.80
2022-07-30T16:58:54.768Z,27.14
2022-07-30T17:01:22.575Z,26.86
2022-07-30T17:03:50.321Z,27.04
2022-07-30T17:06:18.081Z,26.84
2022-07-30T17:08:47.291Z,26.69
2022-07-30T17:11:46.111Z,26.78
2022-07-30T17:14:04.742Z,26.62
2022-07-30T17:16:32.566Z,26.28
2022-07-30T17:19:00.286Z,26.19
2022-07-30T17:21:37.837Z,26.42
2022-07-30T17:24:11.122Z,26.25
2022-07-30T17:26:41.657Z,25.86
2022-07-30T17:29:13.934Z,25.70
2022-07-30T17:31:43.875Z,25.45
2022-07-30T17:34:13.750Z,25.58
2022-07-30T17:36:42.880Z,25.55
2022-07-30T17:40:27.387Z,25.57
2022-07-30T17:42:09.754Z,25.34
2022-07-30T17:44:38.119Z,25.56
2022-07-30T17:47:07.964Z,25.47
2022-07-30T17:49:40.147Z,25.87
2022-07-30T17:52:08.655Z,25.84
2022-07-30T17:54:37.753Z,25.95
2022-07-30T17:57:05.590Z,25.93
2022-07-30T17:59:33.259Z,25.53
2022-07-30T18:02:04.161Z,25.71
2022-07-30T18:04:32.362Z,25.88
2022-07-30T18:07:00.357Z,26.06
2022-07-30T18:09:28.100Z,26.00
2022-07-30T18:11:57.209Z,25.95
2022-07-30T18:14:27.869Z,26.10
2022-07-30T18:16:56.593Z,26.40
2022-07-30T18:19:27.174Z,26.37
2022-07-30T18:21:55.591Z,26.45
2022-07-30T18:24:24.818Z,26.56
2022-07-30T18:26:52.872Z,26.40
2022-07-30T18:29:22.133Z,26.69
2022-07-30T18:31:49.912Z,26.72
2022-07-30T18:34:17.679Z,26.69
2022-07-30T18:36:45.888Z,26.74
2022-07-30T18:39:13.569Z,26.72
2022-07-30T18:41:41.317Z,26.63
2022-07-30T18:44:09.032Z,26.62
2022-07-30T18:46:38.080Z,26.67
2022-07-30T18:49:21.160Z,26.66
2022-07-30T18:51:53.524Z,26.43
2022-07-30T18:54:21.371Z,26.43
2022-07-30T18:56:49.088Z,26.51
2022-07-30T18:59:16.933Z,26.59
2022-07-30T19:01:46.035Z,26.50
2022-07-30T19:04:13.780Z,26.59
2022-07-30T19:06:41.733Z,26.52
2022-07-30T19:09:17.378Z,26.55
2022-07-30T19:11:46.095Z,26.57
2022-07-30T19:14:14.554Z,26.50
2022-07-30T19:16:42.907Z,26.45
2022-07-30T19:19:13.539Z,26.49
2022-07-30T19:21:41.513Z,26.46
2022-07-30T19:24:09.980Z,26.49
2022-07-30T19:26:39.529Z,26.52
2022-07-30T19:29:08.067Z,26.45
2022-07-30T19:31:36.183Z,26.38
2022-07-30T19:34:06.962Z,26.24
2022-07-30T19:36:36.192Z,26.36
2022-07-30T19:39:07.164Z,26.39
2022-07-30T19:41:40.319Z,26.31
2022-07-30T19:44:08.199Z,26.22
2022-07-30T19:46:37.272Z,26.14
2022-07-30T19:52:10.379Z,26.30
2022-07-30T19:54:42.300Z,25.93
2022-07-30T19:57:10.111Z,25.95
2022-07-30T19:59:46.339Z,25.95
2022-07-30T20:02:25.760Z,26.01
2022-07-30T20:04:54.577Z,26.10
2022-07-30T20:10:11.908Z,25.52
2022-07-30T20:12:42.205Z,25.78
2022-07-30T20:15:14.637Z,25.78
2022-07-30T20:17:42.618Z,25.49
2022-07-30T20:20:11.608Z,25.57
2022-07-30T20:22:40.712Z,25.46
2022-07-30T20:25:09.747Z,25.12
2022-07-30T20:27:38.911Z,25.31
2022-07-30T20:30:08.781Z,25.20
2022-07-30T20:32:36.680Z,25.49
2022-07-30T20:35:05.855Z,25.56
2022-07-30T20:37:33.570Z,25.59
2022-07-30T20:40:23.196Z,25.53
2022-07-30T20:42:50.996Z,25.50
2022-07-30T20:45:18.688Z,25.54
2022-07-30T20:47:56.590Z,25.52
2022-07-30T20:50:30.395Z,25.21
2022-07-30T20:52:58.876Z,24.79
2022-07-30T20:55:28.989Z,24.76
2022-07-30T20:58:09.961Z,24.31
2022-07-30T21:00:49.956Z,24.62
2022-07-30T21:03:19.001Z,24.55
2022-07-30T21:05:52.412Z,24.24
2022-07-30T21:08:21.182Z,24.30
2022-07-30T21:10:55.193Z,24.17
2022-07-30T21:13:25.001Z,24.58
2022-07-30T21:16:02.511Z,24.32
2022-07-30T21:18:31.678Z,24.54
2022-07-30T21:21:04.914Z,24.27
2022-07-30T21:23:33.775Z,24.13
2022-07-30T21:26:10.482Z,24.58
2022-07-30T21:28:41.266Z,24.36
2022-07-30T21:31:09.167Z,24.47
2022-07-30T21:33:37.179Z,24.32
2022-07-30T21:36:05.459Z,24.22
2022-07-30T21:38:41.894Z,24.21
2022-07-30T21:41:15.123Z,24.55
2022-07-30T21:43:44.104Z,24.55
2022-07-30T21:46:12.102Z,24.73
2022-07-30T21:48:40.148Z,24.49
2022-07-30T21:51:09.395Z,24.72
2022-07-30T21:53:46.296Z,24.07
2022-07-30T21:56:16.316Z,24.14
2022-07-30T21:58:44.752Z,24.48
2022-07-30T22:01:17.884Z,24.20
2022-07-30T22:04:03.494Z,23.69
2022-07-30T22:06:34.832Z,24.23
2022-07-30T22:09:08.541Z,24.14
2022-07-30T22:11:48.099Z,24.11
2022-07-30T22:14:15.867Z,23.79
2022-07-30T22:16:46.095Z,23.89
2022-07-30T22:19:14.745Z,24.53
2022-07-30T22:21:42.922Z,24.28
2022-07-30T22:24:29.639Z,24.33
2022-07-30T22:27:01.658Z,24.66
2022-07-30T22:29:38.062Z,24.74
2022-07-30T22:32:07.836Z,24.69
2022-07-30T22:34:35.917Z,24.71
2022-07-30T22:37:04.148Z,24.64
2022-07-30T22:39:51.503Z,24.58
2022-07-30T22:42:24.038Z,24.49
2022-07-30T22:44:52.834Z,24.47
2022-07-30T22:50:09.345Z,24.33
2022-07-30T22:52:38.526Z,24.32
2022-07-30T22:55:08.961Z,24.34
2022-07-30T22:57:40.252Z,24.34
2022-07-30T23:00:12.039Z,24.48
2022-07-30T23:02:39.943Z,24.53
2022-07-30T23:05:08.571Z,24.42
2022-07-30T23:07:39.835Z,24.29
2022-07-30T23:10:18.242Z,24.06
2022-07-30T23:12:16.563Z,26.18
2022-07-30T23:12:16.712Z,25.83
2022-07-30T23:12:30.469Z,24.61
2022-07-30T23:12:48.927Z,24.17
2022-07-30T23:15:16.761Z,24.38
2022-07-30T23:17:44.955Z,24.35
2022-07-30T23:20:14.673Z,24.39
2022-07-30T23:22:42.800Z,24.48
2022-07-30T23:25:12.245Z,24.53
2022-07-30T23:27:40.699Z,24.49
2022-07-30T23:30:11.891Z,24.51
2022-07-30T23:32:40.193Z,24.58
2022-07-30T23:35:09.621Z,24.16
2022-07-30T23:37:48.361Z,24.45
2022-07-30T23:40:18.204Z,24.28
2022-07-30T23:42:46.076Z,24.50
2022-07-30T23:45:15.369Z,24.32
2022-07-30T23:48:00.916Z,24.39
2022-07-30T23:50:30.150Z,24.25
2022-07-30T23:52:58.209Z,24.20
2022-07-30T23:55:26.928Z,24.27
2022-07-30T23:57:54.723Z,24.30
